• Join FlightAware (Why Join?)
  • Login
  • US Flag 
11:14PM EDT


 

Airport Tracker/Info


-or-


 

Live Flight TrackerFlight Track Log ✈ JBU109 ✈ 11-Jul-2013 ✈ KJFK - MDSD / SDQ

Flight Track Log - Related Links

Times and Time Zones

All times are in EDT time to prevent confusion due to time zone crossing. See the JBU109 flight status page for this flight to view local times or setup timezone preferences in your user account.

Time Position Orientation Groundspeed Altitude Reporting Facility
EDT Latitude Longitude Course Direction KTS MPH feet Rate Location/Type
11:37PM 40.6440 -73.7770 47° Northeast 2 2  Level FlightAware
11:40PM 40.6430 -73.7770 180° South 15 17  Level FlightAware
11:42PM 40.5207 -73.5833 180° South  Level FlightAware Approximate
11:43PM 40.4670 -73.4728 128° Southeast  Level FlightAware Approximate
11:44PM 40.3988 -73.3590 128° Southeast  Level FlightAware Approximate
11:44PM 40.6410 -73.7750 128° Southeast 34 39  Level FlightAware
11:45PM 40.6410 -73.7740 90° East 25 29 60 Level FlightAware
11:45PM 40.6390 -73.7750 201° Southwest 34 39 60 Level FlightAware
11:46PM 40.6380 -73.7760 217° Southwest 19 22 60 Level FlightAware
11:46PM 40.6370 -73.7770 217° Southwest 18 21 60 Level FlightAware
11:47PM 40.6350 -73.7790 217° Southwest 18 21 120 Level FlightAware
11:47PM 40.6320 -73.7800 194° South 34 39 120 Level FlightAware
11:47PM 40.6310 -73.7810 217° Southwest 30 35 120 Level FlightAware
11:48PM 40.6300 -73.7820 217° Southwest 28 32 120 Level FlightAware
11:48PM 40.6290 -73.7820 180° South 30 35 120 Level FlightAware
11:49PM 40.6270 -73.7840 217° Southwest 30 35 120 Level FlightAware
11:49PM 40.6260 -73.7850 217° Southwest 31 36 180 Level FlightAware
11:50PM 40.6240 -73.7860 201° Southwest 29 33 180 Level FlightAware
11:50PM 40.6230 -73.7870 217° Southwest 22 25 240 Level FlightAware
11:51PM 40.6230 -73.7860 90° East 11 13 240 Level FlightAware
11:51PM 40.6220 -73.7860 180° South 22 25 300 Level FlightAware
11:52PM 40.6220 -73.7850 90° East 360 Level FlightAware
11:53PM 40.6230 -73.7850 360° North 25 29 420 Level FlightAware
11:53PM 40.6310 -73.7780 34° Northeast 130 150 1,020 Level FlightAware
11:54PM 40.6490 -73.7640 31° Northeast 157 181 900 2,100 Climbing FlightAware
11:54PM 40.6530 -73.7580 49° Northeast 155 178 1,400 1,980 Climbing FlightAware
11:54PM 40.6560 -73.7410 77° East 177 204 1,800 1,200 Climbing FlightAware
11:54PM 40.6560 -73.7080 90° East 212 244 2,300 960 Climbing FlightAware
11:55PM 40.6550 -73.6780 93° East 244 281 2,600 1,260 Climbing FlightAware
11:55PM 40.6500 -73.6600 110° East 264 304 3,000 2,460 Climbing FlightAware
11:55PM 40.6400 -73.6460 133° Southeast 269 310 3,600 3,000 Climbing FlightAware
11:55PM 40.6190 -73.6330 155° Southeast 275 316 4,500 3,060 Climbing FlightAware
11:56PM 40.5880 -73.6170 159° South 279 321 5,900 3,060 Climbing FlightAware
11:56PM 40.5643 -73.6027 155° Southeast 282 325 6,900 3,000 Climbing FlightAware ADS-B
11:57PM 40.5449 -73.5912 156° South 286 329 7,700 2,880 Climbing FlightAware ADS-B
11:57PM 40.5270 -73.5803 155° Southeast 285 328 8,400 3,180 Climbing FlightAware ADS-B
11:57PM 40.5111 -73.5693 152° Southeast 284 327 9,200 3,300 Climbing FlightAware ADS-B
11:57PM 40.5054 -73.5645 147° Southeast 287 330 9,400 1,980 Climbing FlightAware ADS-B
11:57PM 40.5019 -73.5607 140° Southeast 290 334 9,500 1,320 Climbing FlightAware ADS-B
11:57PM 40.4973 -73.5550 137° Southeast 293 337 9,600 1,320 Climbing FlightAware ADS-B
11:57PM 40.4931 -73.5490 133° Southeast 300 345 9,700 1,800 Climbing FlightAware ADS-B
11:57PM 40.4880 -73.5408 129° Southeast 306 352 9,900 1,680 Climbing FlightAware ADS-B
11:58PM 40.4589 -73.4892 127° Southeast 329 379 10,800 1,500 Climbing FlightAware ADS-B
11:58PM 40.4527 -73.4804 133° Southeast 335 386 10,900 960 Climbing FlightAware ADS-B
11:58PM 40.4457 -73.4729 141° Southeast 341 392 11,000 960 Climbing FlightAware ADS-B
11:59PM 40.4027 -73.4413 151° Southeast 365 420 11,500 1,560 Climbing FlightAware ADS-B
11:59PM 40.3572 -73.4100 152° Southeast 371 427 12,600 2,040 Climbing FlightAware ADS-B
12:00AM 40.3110 -73.3774 152° Southeast 378 435 13,600 1,920 Climbing FlightAware ADS-B
12:00AM 40.2642 -73.3442 152° Southeast 382 440 14,600 1,680 Climbing FlightAware ADS-B
12:01AM 40.2166 -73.3102 151° Southeast 391 450 15,300 1,680 Climbing FlightAware ADS-B
12:01AM 40.1683 -73.2757 151° Southeast 393 452 16,300 1,800 Climbing FlightAware ADS-B
12:02AM 40.1179 -73.2399 151° Southeast 397 457 17,200 1,500 Climbing FlightAware ADS-B
12:02AM 40.0678 -73.2044 152° Southeast 409 471 17,900 1,440 Climbing FlightAware ADS-B
12:03AM 40.0003 -73.1567 152° Southeast 417 480 18,900 1,920 Climbing FlightAware ADS-B
12:03AM 39.9493 -73.1206 152° Southeast 404 465 20,200 2,280 Climbing FlightAware ADS-B
12:04AM 39.8991 -73.0852 152° Southeast 401 461 21,300 2,220 Climbing FlightAware ADS-B
12:04AM 39.8500 -73.0507 152° Southeast 389 448 22,500 1,680 Climbing FlightAware ADS-B
12:05AM 39.8030 -73.0176 152° Southeast 384 442 23,000 840 Climbing FlightAware ADS-B
12:06AM 39.7432 -72.9759 152° Southeast 387 445 23,500 900 Climbing FlightAware ADS-B
12:06AM 39.6898 -72.9385 152° Southeast 396 456 24,100 1,200 Climbing FlightAware ADS-B
12:07AM 39.6010 -72.8760 152° Southeast 389 448 25,300 1,380 Climbing FlightAware
12:07AM 39.5574 -72.8461 152° Southeast 398 458 26,000 1,140 Climbing FlightAware ADS-B
12:08AM 39.4839 -72.7951 152° Southeast 403 464 26,700 1,020 Climbing FlightAware ADS-B
12:09AM 39.3845 -72.7263 152° Southeast 408 470 27,800 1,020 Climbing FlightAware ADS-B
12:10AM 39.3303 -72.6888 152° Southeast 411 473 28,300 900 Climbing FlightAware ADS-B
12:10AM 39.2793 -72.6534 152° Southeast 412 474 28,800 960 Climbing FlightAware ADS-B
12:11AM 39.2284 -72.6183 152° Southeast 412 474 29,300 840 Climbing FlightAware ADS-B
12:11AM 39.1764 -72.5825 152° Southeast 419 482 29,700 840 Climbing FlightAware ADS-B
12:12AM 39.1223 -72.5453 152° Southeast 422 486 30,200 840 Climbing FlightAware ADS-B
12:12AM 39.0689 -72.5087 152° Southeast 425 489 30,600 780 Climbing FlightAware ADS-B
12:13AM 39.0163 -72.4727 152° Southeast 426 490 31,000 1,200 Climbing FlightAware ADS-B
12:13AM 38.9637 -72.4369 152° Southeast 420 483 31,800 1,140 Climbing FlightAware ADS-B
12:14AM 38.9119 -72.4015 152° Southeast 420 483 32,200 840 Climbing FlightAware ADS-B
12:14AM 38.8604 -72.3664 152° Southeast 418 481 32,700 840 Climbing FlightAware ADS-B
12:15AM 38.8036 -72.3278 152° Southeast 418 481 33,100 660 Climbing FlightAware ADS-B
12:16AM 38.7411 -72.2854 152° Southeast 421 484 33,500 780 Climbing FlightAware ADS-B
12:16AM 38.6890 -72.2501 152° Southeast 417 480 34,000 660 Climbing FlightAware ADS-B
12:17AM 38.6400 -72.2170 152° Southeast 420 483 34,200 420 Climbing FlightAware
12:17AM 38.6225 -72.2051 152° Southeast 420 483 34,300 780 Climbing FlightAware ADS-B
12:17AM 38.5713 -72.1706 152° Southeast 416 479 34,700 660 Climbing FlightAware ADS-B
12:18AM 38.5200 -72.1361 152° Southeast 419 482 35,000 300 Climbing FlightAware ADS-B
12:18AM 38.4680 -72.1012 152° Southeast 425 489 35,000  Level FlightAware ADS-B
12:19AM 38.4148 -72.0654 152° Southeast 434 499 35,000  Level FlightAware ADS-B
12:19AM 38.3605 -72.0289 152° Southeast 442 509 35,000  Level FlightAware ADS-B
12:20AM 38.3059 -71.9924 152° Southeast 450 518 35,000  Level FlightAware ADS-B
12:20AM 38.2498 -71.9550 152° Southeast 454 522 35,000  Level FlightAware ADS-B
12:21AM 38.1780 -71.9070 152° Southeast 453 521 35,000  Level FlightAware ADS-B
12:21AM 38.1206 -71.8689 152° Southeast 452 520 35,000  Level FlightAware ADS-B
12:22AM 38.0644 -71.8315 152° Southeast 449 517 35,000  Level FlightAware ADS-B
12:22AM 38.0110 -71.7960 152° Southeast 439 505 35,000  Level FlightAware
12:23AM 37.9391 -71.7487 153° Southeast 448 516 35,000  Level FlightAware ADS-B
12:24AM 37.8240 -71.6810 155° Southeast 439 505 35,000  Level FlightAware
12:25AM 37.7664 -71.6567 162° South 450 518 35,000  Level FlightAware ADS-B
12:27AM 37.5589 -71.5019 149° Southeast  Level FlightAware Approximate
12:28AM 37.4542 -71.4256 154° Southeast  Level FlightAware Approximate
12:29AM 37.3461 -71.3585 154° Southeast  Level FlightAware Approximate
12:30AM 37.2380 -71.2915 154° Southeast  Level FlightAware Approximate
12:30AM 37.1250 -71.2850 155° Southeast 451 519 35,000  Level New York Center
12:31AM 37.1299 -71.2248 154° Southeast  Level FlightAware Approximate
12:32AM 37.0194 -71.1691 155° Southeast  Level FlightAware Approximate
12:32AM 36.9629 -71.2681 155° Southeast  Level Estimated
12:33AM 36.9104 -71.1048 155° Southeast  Level FlightAware Approximate
12:34AM 36.8014 -71.0408 155° Southeast  Level FlightAware Approximate
12:35AM 36.6923 -70.9769 155° Southeast  Level FlightAware Approximate
12:36AM 36.5832 -70.9132 155° Southeast  Level FlightAware Approximate
12:39AM 36.2259 -70.7573 151° Southeast  Level FlightAware Approximate
12:40AM 36.1204 -70.6851 151° Southeast  Level FlightAware Approximate
12:41AM 36.0149 -70.6131 151° Southeast  Level FlightAware Approximate
12:42AM 35.9094 -70.5413 151° Southeast  Level FlightAware Approximate
12:43AM 35.8038 -70.4697 151° Southeast  Level FlightAware Approximate
12:44AM 35.6834 -70.4631 168° South  Level Estimated
12:45AM 35.5661 -70.4296 167° South  Level FlightAware Approximate
12:46AM 35.4487 -70.3961 167° South  Level FlightAware Approximate
12:46AM 35.7667 -70.4500 168° South 451 519 35,000  Level New York Oceanic (ODAPS)
12:47AM 35.3313 -70.3627 167° South  Level FlightAware Approximate
12:48AM 35.2139 -70.3294 167° South  Level FlightAware Approximate
12:49AM 35.0965 -70.2962 167° South  Level FlightAware Approximate
12:50AM 34.9791 -70.2631 167° South  Level FlightAware Approximate
12:51AM 34.8617 -70.2301 167° South  Level FlightAware Approximate
12:52AM 34.5200 -70.1247 168° South 451 519 35,000  Level FlightAware Transoceanic
12:53AM 34.3952 -70.0928 168° South 451 519 35,000  Level FlightAware Transoceanic
12:54AM 34.2705 -70.0609 168° South 451 519 35,000  Level FlightAware Transoceanic
12:55AM 34.1458 -70.0291 168° South 451 519 35,000  Level FlightAware Transoceanic
12:56AM 34.0210 -69.9974 168° South 451 519 35,000  Level FlightAware Transoceanic
12:57AM 33.8963 -69.9658 168° South 451 519 35,000  Level FlightAware Transoceanic
12:58AM 33.7715 -69.9342 168° South 451 519 35,000  Level FlightAware Transoceanic
12:59AM 33.6468 -69.9028 168° South 451 519 35,000  Level FlightAware Transoceanic
01:00AM 33.5220 -69.8715 168° South 451 519 35,000  Level FlightAware Transoceanic
01:01AM 33.3972 -69.8402 168° South 451 519 35,000  Level FlightAware Transoceanic
01:02AM 33.2724 -69.8091 168° South 451 519 35,000  Level FlightAware Transoceanic
01:03AM 33.1476 -69.7780 168° South 451 519 35,000  Level FlightAware Transoceanic
01:04AM 33.0228 -69.7471 168° South 451 519 35,000  Level FlightAware Transoceanic
01:05AM 32.8980 -69.7162 168° South 451 519 35,000  Level FlightAware Transoceanic
01:05AM 33.3000 -69.8167 168° South 440 506 35,000  Level New York Oceanic (ODAPS)
01:06AM 32.7732 -69.6854 168° South 451 519 35,000  Level FlightAware Transoceanic
01:07AM 32.6483 -69.6546 168° South 451 519 35,000  Level FlightAware Transoceanic
01:08AM 32.5235 -69.6240 168° South 451 519 35,000  Level FlightAware Transoceanic
01:09AM 32.3987 -69.5935 168° South 451 519 35,000  Level FlightAware Transoceanic
01:10AM 32.2738 -69.5630 168° South 451 519 35,000  Level FlightAware Transoceanic
01:11AM 32.1490 -69.5326 168° South 451 519 35,000  Level FlightAware Transoceanic
01:12AM 31.9803 -69.4921 168° South 440 506 35,000  Level FlightAware Transoceanic
01:13AM 31.8603 -69.4630 168° South 440 506 35,000  Level FlightAware Transoceanic
01:14AM 31.7403 -69.4340 168° South 440 506 35,000  Level FlightAware Transoceanic
01:15AM 31.6203 -69.4051 168° South 440 506 35,000  Level FlightAware Transoceanic
01:16AM 31.5002 -69.3763 168° South 440 506 35,000  Level FlightAware Transoceanic
01:17AM 31.3802 -69.3476 168° South 440 506 35,000  Level FlightAware Transoceanic
01:18AM 31.2602 -69.3189 168° South 440 506 35,000  Level FlightAware Transoceanic
01:19AM 31.1401 -69.2903 168° South 440 506 35,000  Level FlightAware Transoceanic
01:20AM 31.0201 -69.2618 169° South 440 506 35,000  Level FlightAware Transoceanic
01:21AM 30.9000 -69.2333 168° South 440 506 35,000  Level FlightAware Transoceanic
01:22AM 30.7701 -69.2024 168° South 440 506 35,000  Level FlightAware Transoceanic
01:22AM 30.9000 -69.2333 168° South 451 519 35,000  Level New York Oceanic (ODAPS)
01:23AM 30.6402 -69.1716 168° South 440 506 35,000  Level FlightAware Transoceanic
01:24AM 30.5103 -69.1408 168° South 440 506 35,000  Level FlightAware Transoceanic
01:25AM 30.3803 -69.1101 169° South 440 506 35,000  Level FlightAware Transoceanic
01:26AM 30.2504 -69.0795 169° South 440 506 35,000  Level FlightAware Transoceanic
01:27AM 30.1205 -69.0490 169° South 440 506 35,000  Level FlightAware Transoceanic
01:28AM 30.0080 -69.0227 169° South 451 519 35,000  Level FlightAware Transoceanic
01:29AM 29.8806 -68.9929 169° South 451 519 35,000  Level FlightAware Transoceanic
01:30AM 29.7531 -68.9632 169° South 451 519 35,000  Level FlightAware Transoceanic
01:31AM 29.6256 -68.9335 169° South 451 519 35,000  Level FlightAware Transoceanic
01:32AM 29.4982 -68.9040 169° South 451 519 35,000  Level FlightAware Transoceanic
01:33AM 29.3707 -68.8745 169° South 451 519 35,000  Level FlightAware Transoceanic
01:34AM 29.2432 -68.8451 169° South 451 519 35,000  Level FlightAware Transoceanic
01:35AM 29.1157 -68.8158 169° South 451 519 35,000  Level FlightAware Transoceanic
01:36AM 28.9882 -68.7865 169° South 451 519 35,000  Level FlightAware Transoceanic
01:37AM 28.8607 -68.7573 169° South 451 519 35,000  Level FlightAware Transoceanic
01:38AM 28.7332 -68.7282 169° South 451 519 35,000  Level FlightAware Transoceanic
01:39AM 28.6057 -68.6991 169° South 451 519 35,000  Level FlightAware Transoceanic
01:40AM 28.4781 -68.6701 169° South 451 519 35,000  Level FlightAware Transoceanic
01:41AM 28.3506 -68.6412 169° South 451 519 35,000  Level FlightAware Transoceanic
01:42AM 28.2231 -68.6124 169° South 451 519 35,000  Level FlightAware Transoceanic
01:43AM 28.0955 -68.5836 169° South 451 519 35,000  Level FlightAware Transoceanic
01:44AM 27.9680 -68.5549 169° South 451 519 35,000  Level FlightAware Transoceanic
01:45AM 27.8404 -68.5263 169° South 451 519 35,000  Level FlightAware Transoceanic
01:46AM 27.7129 -68.4977 169° South 451 519 35,000  Level FlightAware Transoceanic
01:47AM 27.5853 -68.4692 169° South 451 519 35,000  Level FlightAware Transoceanic
01:48AM 27.4577 -68.4408 169° South 451 519 35,000  Level FlightAware Transoceanic
01:49AM 27.3302 -68.4124 169° South 451 519 35,000  Level FlightAware Transoceanic
01:50AM 27.2026 -68.3841 169° South 451 519 35,000  Level FlightAware Transoceanic
01:51AM 27.0750 -68.3559 169° South 451 519 35,000  Level FlightAware Transoceanic
01:51AM 27.9333 -68.5333 169° South 474 545 35,000  Level New York Oceanic (ODAPS)
01:52AM 26.9474 -68.3277 169° South 451 519 35,000  Level FlightAware Transoceanic
01:53AM 26.8198 -68.2996 169° South 451 519 35,000  Level FlightAware Transoceanic
01:54AM 26.6922 -68.2715 169° South 451 519 35,000  Level FlightAware Transoceanic
01:55AM 26.5646 -68.2435 169° South 451 519 35,000  Level FlightAware Transoceanic
01:56AM 26.4370 -68.2156 169° South 451 519 35,000  Level FlightAware Transoceanic
01:57AM 26.3093 -68.1878 169° South 451 519 35,000  Level FlightAware Transoceanic
01:58AM 26.2315 -68.1635 169° South 474 545 35,000  Level FlightAware Transoceanic
01:59AM 26.1005 -68.1355 169° South 474 545 35,000  Level FlightAware Transoceanic
02:00AM 25.9696 -68.1076 169° South 474 545 35,000  Level FlightAware Transoceanic
02:01AM 25.8386 -68.0797 169° South 474 545 35,000  Level FlightAware Transoceanic
02:02AM 25.7076 -68.0519 169° South 474 545 35,000  Level FlightAware Transoceanic
02:03AM 25.5767 -68.0242 169° South 474 545 35,000  Level FlightAware Transoceanic
02:04AM 25.4457 -67.9965 169° South 474 545 35,000  Level FlightAware Transoceanic
02:04AM 25.4667 -68.0000 169° South 473 544 35,000  Level New York Oceanic (ODAPS)
02:05AM 25.3147 -67.9689 169° South 474 545 35,000  Level FlightAware Transoceanic
02:06AM 25.1837 -67.9413 169° South 474 545 35,000  Level FlightAware Transoceanic
02:07AM 25.0527 -67.9138 169° South 474 545 35,000  Level FlightAware Transoceanic
02:08AM 24.9217 -67.8864 169° South 474 545 35,000  Level FlightAware Transoceanic
02:09AM 24.7907 -67.8590 169° South 474 545 35,000  Level FlightAware Transoceanic
02:10AM 24.6597 -67.8316 169° South 474 545 35,000  Level FlightAware Transoceanic
02:11AM 24.5334 -67.8051 169° South 473 544 35,000  Level FlightAware Transoceanic
02:12AM 24.4000 -67.7775 169° South 473 544 35,000  Level FlightAware Transoceanic
02:13AM 24.2667 -67.7500 169° South 473 544 35,000  Level FlightAware Transoceanic
02:14AM 24.1396 -67.7225 169° South 473 544 35,000  Level FlightAware Transoceanic
02:15AM 24.0126 -67.6951 169° South 473 544 35,000  Level FlightAware Transoceanic
02:16AM 23.8855 -67.6677 169° South 473 544 35,000  Level FlightAware Transoceanic
02:17AM 23.7584 -67.6404 169° South 473 544 35,000  Level FlightAware Transoceanic
02:18AM 23.6314 -67.6132 169° South 473 544 35,000  Level FlightAware Transoceanic
02:19AM 23.5043 -67.5859 169° South 473 544 35,000  Level FlightAware Transoceanic
02:20AM 23.3772 -67.5588 169° South 473 544 35,000  Level FlightAware Transoceanic
02:21AM 23.2502 -67.5317 169° South 473 544 35,000  Level FlightAware Transoceanic
02:22AM 23.1231 -67.5046 169° South 473 544 35,000  Level FlightAware Transoceanic
02:23AM 22.9960 -67.4776 169° South 473 544 35,000  Level FlightAware Transoceanic
02:24AM 22.8689 -67.4507 169° South 473 544 35,000  Level FlightAware Transoceanic
02:25AM 22.7418 -67.4238 169° South 473 544 35,000  Level FlightAware Transoceanic
02:26AM 22.6147 -67.3969 169° South 473 544 35,000  Level FlightAware Transoceanic
02:27AM 22.4876 -67.3701 169° South 473 544 35,000  Level FlightAware Transoceanic
02:28AM 22.3605 -67.3434 169° South 473 544 35,000  Level FlightAware Transoceanic
02:28AM 22.3090 -67.4220 169° South 460 529 35,000  Level FlightAware
02:29AM 22.2333 -67.3167 232° Southwest 498 573 35,000  Level New York Oceanic (ODAPS)
02:29AM 22.2030 -67.4690 202° Southwest 454 522 35,000  Level FlightAware
02:30AM 22.1100 -67.5330 213° Southwest 451 519 35,000  Level FlightAware
02:31AM 22.0370 -67.6190 228° Southwest 446 513 35,000  Level FlightAware
02:31AM 21.9840 -67.6910 232° Southwest 446 513 35,000  Level FlightAware
02:32AM 21.9040 -67.7870 228° Southwest 450 518 35,000  Level FlightAware
02:33AM 21.8270 -67.8630 223° Southwest 450 518 35,000  Level FlightAware
02:34AM 21.7780 -67.9100 232° Southwest 450 518 35,000  Level FlightAware
02:35AM 21.7150 -67.9710 222° Southwest 450 518 35,000  Level FlightAware
02:35AM 21.6670 -68.0170 222° Southwest 450 518 35,000  Level FlightAware
02:36AM 21.5740 -68.1160 225° Southwest 451 519 35,000  Level FlightAware
02:37AM 21.4920 -68.1960 222° Southwest 452 520 35,000  Level FlightAware
02:38AM 21.4440 -68.2420 222° Southwest 452 520 35,000  Level FlightAware
02:38AM 21.3810 -68.3030 222° Southwest 452 520 35,000  Level FlightAware
02:39AM 21.3330 -68.3490 222° Southwest 452 520 35,000  Level FlightAware
02:40AM 21.2860 -68.3950 222° Southwest 452 520 35,000  Level FlightAware
02:40AM 21.2220 -68.4560 222° Southwest 452 520 35,000  Level FlightAware
02:41AM 21.1100 -68.5730 224° Southwest 450 518 35,000  Level FlightAware
02:42AM 21.0620 -68.6190 222° Southwest 450 518 35,000  Level FlightAware
02:43AM 20.9440 -68.7360 223° Southwest 450 518 35,000  Level FlightAware
02:44AM 20.8610 -68.8180 223° Southwest 450 518 35,000  Level FlightAware
02:44AM 20.7970 -68.8810 223° Southwest 451 519 35,000  Level FlightAware
02:45AM 20.7380 -68.9380 222° Southwest 452 520 35,000  Level FlightAware
02:46AM 20.6730 -69.0000 222° Southwest 452 520 35,000  Level FlightAware
02:47AM 20.5950 -69.0780 223° Southwest 453 521 35,000  Level FlightAware
02:47AM 20.5360 -69.1350 222° Southwest 453 521 35,000  Level FlightAware
02:48AM 20.4880 -69.1810 222° Southwest 453 521 35,000  Level FlightAware
02:49AM 20.4240 -69.2420 222° Southwest 453 521 35,000  Level FlightAware
02:49AM 20.3770 -69.2880 223° Southwest 453 521 35,000  Level FlightAware
02:50AM 20.3130 -69.3490 222° Southwest 453 521 35,000 -4,560 Level FlightAware
02:51AM 20.1250 -69.2820 161° South 448 516 29,000 -3,660 Descending FlightAware
02:52AM 19.9840 -69.3260 196° South 443 510 28,800 -1,380 Descending FlightAware
02:52AM 19.9120 -69.3490 197° South 436 502 26,500 -3,960 Descending FlightAware
02:53AM 19.8270 -69.3750 196° South 431 496 23,600 -3,900 Descending FlightAware
02:54AM 19.7090 -69.4120 196° South 446 513 19,900 -2,220 Descending FlightAware
02:55AM 19.5850 -69.4500 196° South 431 496 18,800 -1,680 Descending FlightAware
02:56AM 19.4800 -69.4830 197° South 401 461 16,400 -1,620 Descending FlightAware
02:57AM 19.4250 -69.5000 196° South 401 461 16,400  Level FlightAware
02:58AM 19.3340 -69.5270 196° South 401 461 16,400 -2,760 Level FlightAware
02:59AM 19.2510 -69.5550 198° South 347 399 11,700 -4,080 Descending FlightAware
02:59AM 19.1850 -69.5760 197° South 338 389 10,500 -900 Descending FlightAware
03:00AM 19.1240 -69.5940 196° South 338 389 10,400 -120 Descending FlightAware
03:01AM 19.0780 -69.6080 196° South 338 389 10,400  Level FlightAware
03:03AM 18.8663 -69.6732 196° South  Level FlightAware Approximate
03:04AM 18.7456 -69.6736 174° South  Level FlightAware Approximate
03:05AM 18.6234 -69.6667 180° South  Level FlightAware Approximate
03:06AM 18.5009 -69.6667 180° South  Level FlightAware Approximate
03:07AM 18.4297 -69.6689 169° South  Level Estimated
03:08AM 18.4297 -69.6689 169° South  Level Estimated
03:09AM 18.4297 -69.6689 169° South  Level Estimated
03:10AM 18.4297 -69.6689 169° South  Level Estimated
03:11AM 18.4297 -69.6689 169° South  Level Estimated
03:12AM 18.4297 -69.6689 169° South  Level Estimated
03:13AM 18.4297 -69.6689 169° South  Level Estimated
03:14AM 18.4297 -69.6689 169° South  Level Estimated
03:15AM 18.4297 -69.6689 169° South  Level Estimated
03:16AM 18.4297 -69.6689 169° South  Level Estimated
03:17AM 18.4297 -69.6689 169° South  Level Estimated
03:18AM 18.4297 -69.6689 169° South  Level Estimated
03:19AM 18.4297 -69.6689 169° South  Level Estimated
03:20AM 18.4297 -69.6689 169° South  Level Estimated
03:21AM 18.4297 -69.6689 169° South  Level Estimated
03:22AM 18.4297 -69.6689 169° South  Level Estimated
03:23AM 18.4297 -69.6689 169° South  Level Estimated
03:24AM 18.4297 -69.6689 169° South  Level Estimated
03:25AM 18.4297 -69.6689 169° South  Level Estimated
03:26AM 18.4297 -69.6689 169° South  Level Estimated
03:27AM 18.4297 -69.6689 169° South  Level Estimated